Time;durP1;ratioP1;P1;durP2;ratioP2;P2;SDS_P1;SDS_P2;PMS_P1;PMS_P2;Temp;Humidity;BMP_temperature;BMP_pressure;BME280_temperature;BME280_humidity;BME280_pressure;Samples;Min_cycle;Max_cycle;Signal;HPM_P1;HPM_P2
2022/05/31 00:00:43;;;;;;;11.27;4.45;;;13.20;99.90;;;;;;4181277;28;20167;-87
2022/05/31 00:02:45;;;;;;;6.78;4.28;;;13.50;99.90;;;;;;4181445;28;20215;-87
2022/05/31 00:04:47;;;;;;;7.30;3.95;;;13.80;99.90;;;;;;4181329;28;20694;-86
2022/05/31 00:06:48;;;;;;;8.23;4.60;;;14.10;99.90;;;;;;4197440;28;20170;-87
2022/05/31 00:08:48;;;;;;;6.93;4.15;;;14.20;99.90;;;;;;4197758;28;20194;-88
2022/05/31 00:10:49;;;;;;;9.55;4.53;;;14.20;99.90;;;;;;4197542;28;20229;-88
2022/05/31 00:12:50;;;;;;;9.98;4.93;;;14.20;99.90;;;;;;4181309;28;20628;-87
2022/05/31 00:14:51;;;;;;;7.03;4.55;;;14.00;99.90;;;;;;4180936;28;20580;-86
2022/05/31 00:16:52;;;;;;;7.57;4.30;;;13.90;99.90;;;;;;4197504;28;20292;-86
2022/05/31 00:18:53;;;;;;;11.07;4.82;;;14.00;99.90;;;;;;4180813;28;20179;-87
2022/05/31 00:20:55;;;;;;;9.43;4.68;;;14.00;99.90;;;;;;4180909;28;20575;-86
2022/05/31 00:22:56;;;;;;;9.15;4.88;;;13.90;99.90;;;;;;4180281;28;20175;-87
2022/05/31 00:24:56;;;;;;;9.13;5.00;;;13.80;99.90;;;;;;4180978;28;20179;-87
2022/05/31 00:26:57;;;;;;;8.00;4.22;;;13.60;99.90;;;;;;4180521;28;20202;-87
2022/05/31 00:28:58;;;;;;;11.52;4.35;;;13.40;99.90;;;;;;4180599;28;20160;-87
2022/05/31 00:30:59;;;;;;;8.40;5.20;;;13.20;99.90;;;;;;4196908;28;20186;-89
2022/05/31 00:33:01;;;;;;;9.13;4.03;;;13.00;99.90;;;;;;4180857;28;20213;-87
2022/05/31 00:35:12;;;;;;;9.82;4.68;;;13.00;99.90;;;;;;4180804;28;20218;-87
2022/05/31 00:37:13;;;;;;;11.55;5.00;;;13.30;99.90;;;;;;4196736;28;20221;-89
2022/05/31 00:39:14;;;;;;;8.82;4.50;;;13.30;99.90;;;;;;4180415;28;20663;-89
2022/05/31 00:41:23;;;;;;;7.50;4.20;;;13.20;99.90;;;;;;4180597;28;20171;-89
2022/05/31 00:43:25;;;;;;;9.43;4.35;;;13.00;99.90;;;;;;4213294;28;20177;-87
2022/05/31 00:45:41;;;;;;;8.25;4.13;;;13.00;99.90;;;;;;4180632;28;20270;-88
2022/05/31 00:47:42;;;;;;;9.30;4.57;;;13.00;99.90;;;;;;4180452;28;20198;-87
2022/05/31 00:49:58;;;;;;;8.82;4.63;;;13.10;99.90;;;;;;4213367;28;20182;-86
2022/05/31 00:52:10;;;;;;;12.70;4.60;;;13.50;99.90;;;;;;4180243;28;20174;-86
2022/05/31 00:54:17;;;;;;;15.45;4.10;;;13.70;99.90;;;;;;4196731;28;20181;-88
2022/05/31 00:56:21;;;;;;;7.22;4.38;;;13.90;99.90;;;;;;4196684;28;20263;-87
2022/05/31 00:58:29;;;;;;;13.10;4.90;;;13.90;99.90;;;;;;4196660;28;20198;-87
2022/05/31 01:00:30;;;;;;;9.23;4.30;;;13.80;99.90;;;;;;4196649;28;20556;-87
2022/05/31 01:02:31;;;;;;;8.40;4.05;;;13.60;99.90;;;;;;4197127;28;20169;-89
2022/05/31 01:04:41;;;;;;;7.30;4.10;;;13.70;99.90;;;;;;4180241;28;20176;-88
2022/05/31 01:06:42;;;;;;;9.32;4.18;;;13.90;99.90;;;;;;4180302;28;20178;-88
2022/05/31 01:08:45;;;;;;;9.23;4.25;;;13.60;99.90;;;;;;4196827;28;20177;-87
2022/05/31 01:11:05;;;;;;;9.73;4.45;;;13.10;99.90;;;;;;4197184;28;20297;-87
2022/05/31 01:13:27;;;;;;;7.93;4.45;;;12.60;99.90;;;;;;4156722;28;20236;-87
2022/05/31 01:15:48;;;;;;;7.72;4.20;;;12.60;99.90;;;;;;4197067;28;20187;-88
2022/05/31 01:18:08;;;;;;;8.48;4.25;;;12.80;99.90;;;;;;4197728;28;20304;-87
2022/05/31 01:20:27;;;;;;;10.02;4.63;;;12.70;99.90;;;;;;4198287;28;20641;-88
2022/05/31 01:22:49;;;;;;;8.95;4.03;;;12.90;99.90;;;;;;4180884;28;20224;-89
2022/05/31 01:25:24;;;;;;;8.77;4.45;;;12.90;99.90;;;;;;4196516;28;20171;-87
2022/05/31 01:27:43;;;;;;;4.32;3.25;;;12.60;99.90;;;;;;4183980;28;20260;-88
2022/05/31 01:29:46;;;;;;;7.78;3.47;;;12.10;99.90;;;;;;4196334;28;20171;-86
2022/05/31 01:32:02;;;;;;;10.80;5.05;;;12.10;99.90;;;;;;4196261;28;20188;-88
2022/05/31 01:34:08;;;;;;;10.95;5.25;;;12.30;99.90;;;;;;4180028;28;20184;-86
2022/05/31 01:36:17;;;;;;;10.85;4.93;;;12.20;99.90;;;;;;4183301;28;20237;-89
2022/05/31 01:38:53;;;;;;;8.77;5.30;;;12.00;99.90;;;;;;4199804;28;20198;-88
2022/05/31 01:41:14;;;;;;;11.13;5.03;;;11.90;99.90;;;;;;4217232;28;20542;-86
2022/05/31 01:43:15;;;;;;;10.15;4.60;;;11.90;99.90;;;;;;4199818;28;20233;-87
2022/05/31 01:45:21;;;;;;;10.27;4.53;;;11.70;99.90;;;;;;4200056;28;20175;-87
2022/05/31 01:47:22;;;;;;;7.65;4.82;;;11.50;99.90;;;;;;4216485;28;20233;-86
2022/05/31 01:49:24;;;;;;;10.98;4.90;;;11.70;99.90;;;;;;4199759;28;20232;-87
2022/05/31 01:51:26;;;;;;;7.50;4.72;;;11.80;99.90;;;;;;4199534;28;20177;-87
2022/05/31 01:53:27;;;;;;;7.90;4.85;;;11.70;99.90;;;;;;4200067;28;20265;-89
2022/05/31 01:55:32;;;;;;;8.20;4.57;;;11.60;99.90;;;;;;4199982;28;20182;-86
2022/05/31 01:57:34;;;;;;;6.88;4.20;;;11.50;99.90;;;;;;4182811;28;20215;-88
2022/05/31 01:59:39;;;;;;;7.47;4.82;;;11.50;99.90;;;;;;4199319;28;20183;-87
2022/05/31 02:01:40;;;;;;;8.18;4.68;;;11.50;99.90;;;;;;4183182;28;20183;-87
2022/05/31 02:03:42;;;;;;;8.85;4.30;;;11.70;99.90;;;;;;4199055;28;20583;-87
2022/05/31 02:05:46;;;;;;;7.93;4.63;;;11.80;99.90;;;;;;4199544;28;20179;-89
2022/05/31 02:08:02;;;;;;;8.73;4.78;;;12.00;99.90;;;;;;4199338;28;20300;-87
2022/05/31 02:10:06;;;;;;;6.82;4.72;;;12.00;99.90;;;;;;4183500;28;20186;-87
2022/05/31 02:12:14;;;;;;;7.25;4.65;;;12.00;99.90;;;;;;4199390;28;20257;-90
2022/05/31 02:14:27;;;;;;;8.50;4.72;;;11.90;99.90;;;;;;4184639;28;20163;-87
2022/05/31 02:16:28;;;;;;;12.65;5.05;;;11.80;99.90;;;;;;4183362;28;20203;-90
2022/05/31 02:21:35;;;;;;;8.10;4.63;;;11.90;99.90;;;;;;4183197;28;20271;-87
2022/05/31 02:23:37;;;;;;;8.80;4.90;;;11.90;99.90;;;;;;4199152;28;20582;-87
2022/05/31 02:25:40;;;;;;;6.68;4.50;;;12.00;99.90;;;;;;4182476;28;20179;-89
2022/05/31 02:27:40;;;;;;;8.38;5.40;;;12.00;99.90;;;;;;4198770;28;20195;-87
2022/05/31 02:29:42;;;;;;;10.32;5.03;;;12.20;99.90;;;;;;4199180;28;20685;-89
2022/05/31 02:31:44;;;;;;;9.25;5.75;;;12.20;99.90;;;;;;4199158;28;20186;-89
2022/05/31 02:33:45;;;;;;;6.97;4.93;;;12.20;99.90;;;;;;4200055;28;20636;-88
2022/05/31 02:35:46;;;;;;;8.07;5.60;;;12.10;99.90;;;;;;4199243;28;20174;-88
2022/05/31 02:37:48;;;;;;;10.10;5.68;;;12.10;99.90;;;;;;4198570;28;20285;-89
2022/05/31 02:39:49;;;;;;;7.43;5.60;;;12.10;99.90;;;;;;4182337;28;20163;-86
2022/05/31 02:41:52;;;;;;;8.10;5.70;;;12.10;99.90;;;;;;4215521;28;20174;-89
2022/05/31 02:43:52;;;;;;;8.13;5.93;;;12.10;99.90;;;;;;4198802;28;20193;-87
2022/05/31 02:45:53;;;;;;;11.43;5.70;;;12.10;99.90;;;;;;4181922;28;20191;-89
2022/05/31 02:47:55;;;;;;;13.60;5.72;;;12.20;99.90;;;;;;4182134;28;20191;-89
2022/05/31 02:49:55;;;;;;;9.77;5.45;;;12.20;99.90;;;;;;4182423;28;20592;-87
2022/05/31 02:51:59;;;;;;;10.15;5.22;;;12.90;99.90;;;;;;4198684;28;20174;-89
2022/05/31 02:54:00;;;;;;;10.35;5.50;;;13.50;99.90;;;;;;4198509;28;20539;-86
2022/05/31 02:56:21;;;;;;;8.68;4.72;;;13.70;99.90;;;;;;4198758;28;20221;-86
2022/05/31 02:58:56;;;;;;;9.40;4.87;;;13.90;99.90;;;;;;4198766;28;20182;-86
2022/05/31 03:01:25;;;;;;;9.53;4.70;;;13.80;99.90;;;;;;4199120;28;20189;-88
2022/05/31 03:03:44;;;;;;;7.57;4.80;;;13.70;99.90;;;;;;4199178;28;20714;-88
2022/05/31 03:06:04;;;;;;;9.33;4.87;;;13.50;99.90;;;;;;4198760;28;20276;-88
2022/05/31 03:08:14;;;;;;;9.23;5.00;;;13.30;99.90;;;;;;4198340;28;20645;-86
2022/05/31 03:10:43;;;;;;;8.07;4.83;;;13.20;99.90;;;;;;4190530;28;20183;-88
2022/05/31 03:12:46;;;;;;;8.83;5.43;;;13.30;99.90;;;;;;4198197;28;20166;-86
2022/05/31 03:14:56;;;;;;;7.30;5.20;;;13.20;99.90;;;;;;4198480;28;20505;-88
2022/05/31 03:17:03;;;;;;;7.47;5.50;;;12.60;99.90;;;;;;4198599;28;20219;-88
2022/05/31 03:19:08;;;;;;;9.97;6.13;;;12.80;99.90;;;;;;4198444;28;20228;-87
2022/05/31 03:21:17;;;;;;;9.93;5.83;;;13.00;99.90;;;;;;4198568;28;20541;-86
2022/05/31 03:23:25;;;;;;;12.10;5.67;;;13.00;99.90;;;;;;4198480;28;20178;-89
2022/05/31 03:25:27;;;;;;;11.30;5.90;;;12.90;99.90;;;;;;4198086;28;20209;-86
2022/05/31 03:27:29;;;;;;;15.53;6.13;;;13.10;99.90;;;;;;4197933;28;20226;-88
2022/05/31 03:29:29;;;;;;;11.00;6.27;;;13.00;99.90;;;;;;4198397;28;20225;-86
2022/05/31 03:31:31;;;;;;;12.20;5.97;;;12.60;99.90;;;;;;4181831;28;20647;-86
2022/05/31 03:33:32;;;;;;;11.37;6.27;;;12.60;99.90;;;;;;4181541;28;20218;-86
2022/05/31 03:35:33;;;;;;;12.07;5.23;;;12.40;99.90;;;;;;4198201;28;20655;-87
2022/05/31 03:37:41;;;;;;;13.53;6.10;;;12.00;99.90;;;;;;4182492;28;20207;-89
2022/05/31 03:40:00;;;;;;;9.97;5.90;;;12.10;99.90;;;;;;4198349;28;20200;-87
2022/05/31 03:42:01;;;;;;;6.83;4.93;;;11.80;99.90;;;;;;4181439;28;20655;-86
2022/05/31 03:44:03;;;;;;;8.60;5.93;;;11.80;99.90;;;;;;4181440;28;20184;-89
2022/05/31 03:46:35;;;;;;;9.40;5.55;;;12.00;99.90;;;;;;4185151;28;20173;-87
2022/05/31 03:49:02;;;;;;;12.02;5.38;;;12.00;99.90;;;;;;4175340;28;20175;-89
2022/05/31 03:51:12;;;;;;;9.90;6.03;;;11.90;99.90;;;;;;4182368;28;20175;-88
2022/05/31 03:53:14;;;;;;;7.78;5.90;;;11.80;99.90;;;;;;4181199;28;20175;-90
2022/05/31 03:55:15;;;;;;;11.35;6.10;;;11.80;99.90;;;;;;4181228;28;20190;-87
2022/05/31 03:57:23;;;;;;;8.55;5.78;;;12.00;99.90;;;;;;4196803;28;20225;-86
2022/05/31 03:59:43;;;;;;;9.32;5.97;;;12.50;99.90;;;;;;4198204;28;20273;-86
2022/05/31 04:01:44;;;;;;;10.47;6.40;;;12.60;99.90;;;;;;4197885;28;20178;-88
2022/05/31 04:03:45;;;;;;;11.97;5.77;;;12.50;99.90;;;;;;4180940;28;20199;-87
2022/05/31 04:05:49;;;;;;;9.23;5.50;;;12.40;99.90;;;;;;4181217;28;20206;-88
2022/05/31 04:08:01;;;;;;;11.23;5.43;;;12.50;99.90;;;;;;4181234;28;20188;-87
2022/05/31 04:10:06;;;;;;;8.60;5.20;;;13.00;99.90;;;;;;4197549;28;20276;-87
2022/05/31 04:12:08;;;;;;;10.60;5.00;;;12.80;99.90;;;;;;4181192;28;20175;-87
2022/05/31 04:14:32;;;;;;;9.68;5.20;;;12.60;99.90;;;;;;4169575;28;20556;-88
2022/05/31 04:16:39;;;;;;;9.57;5.53;;;12.60;99.90;;;;;;4197569;28;20214;-88
2022/05/31 04:18:41;;;;;;;16.03;6.00;;;12.80;99.90;;;;;;4197921;28;20190;-89
2022/05/31 04:20:41;;;;;;;8.60;5.28;;;13.00;99.90;;;;;;4180791;28;20175;-86
2022/05/31 04:22:42;;;;;;;9.25;5.28;;;13.00;99.90;;;;;;4180926;28;20199;-87
2022/05/31 04:25:03;;;;;;;9.13;5.15;;;12.70;99.90;;;;;;4197277;28;20277;-87
2022/05/31 04:27:39;;;;;;;14.82;4.70;;;12.60;99.90;;;;;;4163610;28;20631;-88
2022/05/31 04:30:15;;;;;;;12.30;5.00;;;12.30;99.90;;;;;;4144215;28;20184;-87
2022/05/31 04:32:34;;;;;;;8.07;5.03;;;12.20;99.90;;;;;;4182145;28;20788;-87
2022/05/31 04:34:41;;;;;;;9.65;5.20;;;12.40;99.90;;;;;;4197351;28;20178;-89
2022/05/31 04:36:42;;;;;;;13.67;5.37;;;13.30;99.90;;;;;;4197253;28;20712;-87
2022/05/31 04:38:43;;;;;;;13.67;6.10;;;13.80;99.90;;;;;;4180684;28;20179;-88
2022/05/31 04:40:52;;;;;;;10.90;4.87;;;13.80;99.90;;;;;;4197028;28;20198;-86
2022/05/31 04:42:52;;;;;;;9.73;5.10;;;13.40;99.90;;;;;;4198216;28;20650;-88
2022/05/31 04:45:06;;;;;;;12.90;5.38;;;13.30;99.90;;;;;;4197499;28;20178;-88
2022/05/31 04:47:07;;;;;;;8.60;4.82;;;12.90;99.90;;;;;;4197000;28;20189;-90
2022/05/31 04:49:14;;;;;;;9.85;5.45;;;12.70;99.90;;;;;;4197154;28;20171;-88
2022/05/31 04:51:17;;;;;;;11.75;6.35;;;12.70;99.90;;;;;;4197033;28;20666;-88
2022/05/31 04:53:26;;;;;;;10.18;5.82;;;12.60;99.90;;;;;;4196707;28;20240;-88
2022/05/31 04:55:46;;;;;;;10.70;5.35;;;12.60;99.90;;;;;;4196996;28;20273;-88
2022/05/31 04:57:47;;;;;;;10.45;5.07;;;13.20;99.90;;;;;;4179932;28;20655;-89
2022/05/31 04:59:47;;;;;;;13.50;5.23;;;13.50;99.90;;;;;;4196402;28;20167;-88
2022/05/31 05:01:48;;;;;;;11.20;5.30;;;13.80;99.90;;;;;;4180160;28;20179;-87
2022/05/31 05:03:58;;;;;;;8.87;6.23;;;13.90;99.90;;;;;;4181542;28;20557;-89
2022/05/31 05:06:03;;;;;;;13.87;6.50;;;13.50;99.90;;;;;;4180531;28;20203;-87
2022/05/31 05:08:05;;;;;;;13.43;6.60;;;13.10;99.90;;;;;;4180388;28;20198;-88
2022/05/31 05:10:09;;;;;;;13.95;6.47;;;13.00;99.90;;;;;;4180552;28;20669;-87
2022/05/31 05:12:25;;;;;;;11.10;6.22;;;13.20;99.90;;;;;;4197089;28;20167;-89
2022/05/31 05:14:33;;;;;;;10.30;5.75;;;13.70;99.90;;;;;;4181129;28;20233;-87
2022/05/31 05:16:37;;;;;;;8.43;5.68;;;13.40;99.90;;;;;;4180518;28;20244;-88
2022/05/31 05:18:39;;;;;;;13.10;6.28;;;13.20;99.90;;;;;;4197120;28;20181;-88
2022/05/31 05:20:41;;;;;;;9.95;6.03;;;13.50;99.90;;;;;;4197073;28;20182;-87
2022/05/31 05:22:41;;;;;;;11.82;5.65;;;13.90;99.90;;;;;;4196758;28;20654;-87
2022/05/31 05:24:42;;;;;;;8.25;5.43;;;13.90;99.90;;;;;;4180248;28;20175;-89
2022/05/31 05:27:15;;;;;;;9.88;5.88;;;13.70;99.90;;;;;;4192696;28;20286;-89
2022/05/31 05:31:56;;;;;;;8.40;6.10;;;13.30;99.90;;;;;;4196858;28;20207;-89
2022/05/31 05:34:19;;;;;;;9.00;6.30;;;13.30;99.90;;;;;;4147036;28;20240;-89
2022/05/31 05:36:27;;;;;;;10.88;6.25;;;13.20;99.90;;;;;;4197367;28;20194;-89
2022/05/31 05:38:28;;;;;;;9.30;6.65;;;13.30;99.90;;;;;;4197035;28;20228;-89
2022/05/31 05:40:47;;;;;;;10.15;6.10;;;13.40;99.90;;;;;;4198283;28;20197;-89
2022/05/31 05:42:49;;;;;;;8.07;5.35;;;13.60;99.90;;;;;;4197229;28;20174;-89
2022/05/31 05:45:00;;;;;;;13.60;6.18;;;13.70;99.90;;;;;;4197173;28;20623;-89
2022/05/31 05:47:08;;;;;;;11.20;6.25;;;14.20;99.90;;;;;;4197166;28;20191;-88
2022/05/31 05:49:09;;;;;;;14.07;5.60;;;14.60;99.90;;;;;;4197263;28;20273;-88
2022/05/31 05:51:16;;;;;;;13.10;5.53;;;14.90;99.90;;;;;;4180600;28;20648;-88
2022/05/31 05:53:52;;;;;;;7.90;5.32;;;15.10;99.90;;;;;;4147733;28;20217;-89
2022/05/31 05:56:12;;;;;;;9.93;5.32;;;15.10;99.90;;;;;;4182435;28;20224;-88
2022/05/31 05:58:32;;;;;;;9.77;5.50;;;15.10;99.90;;;;;;4198418;28;20284;-89
2022/05/31 06:00:53;;;;;;;8.07;5.55;;;15.30;99.90;;;;;;4198464;28;20262;-89
2022/05/31 06:03:09;;;;;;;14.90;5.18;;;15.10;99.90;;;;;;4181004;28;20170;-88
2022/05/31 06:05:40;;;;;;;8.27;5.40;;;15.30;99.90;;;;;;4185626;28;20187;-88
2022/05/31 06:07:49;;;;;;;9.32;5.18;;;15.90;99.90;;;;;;4197264;28;20194;-89
2022/05/31 06:10:03;;;;;;;13.27;5.20;;;16.10;99.90;;;;;;4197184;28;20197;-89
2022/05/31 06:12:09;;;;;;;15.55;5.45;;;16.00;99.90;;;;;;4197036;28;20174;-89
2022/05/31 06:14:14;;;;;;;19.67;5.15;;;15.90;99.90;;;;;;4197323;28;20167;-89
2022/05/31 06:16:19;;;;;;;14.20;4.97;;;15.80;99.90;;;;;;4180312;28;20195;-89
2022/05/31 06:18:24;;;;;;;7.35;5.07;;;15.70;99.90;;;;;;4180396;28;20200;-89
2022/05/31 06:20:27;;;;;;;9.32;5.00;;;15.60;99.90;;;;;;4181087;28;20168;-89
2022/05/31 06:22:29;;;;;;;11.40;5.05;;;15.60;99.90;;;;;;4200107;28;20516;-89
2022/05/31 06:24:49;;;;;;;12.20;5.28;;;15.60;99.90;;;;;;4200251;28;20174;-89
2022/05/31 06:27:16;;;;;;;12.65;5.85;;;15.60;99.90;;;;;;4185180;28;20199;-89
2022/05/31 06:29:16;;;;;;;9.85;5.03;;;15.70;99.90;;;;;;4183448;28;20172;-89
2022/05/31 06:31:17;;;;;;;10.85;5.15;;;15.80;99.90;;;;;;4200233;28;20667;-89
2022/05/31 06:33:18;;;;;;;11.82;5.82;;;15.90;99.90;;;;;;4183505;28;20172;-88
2022/05/31 06:35:21;;;;;;;9.98;5.18;;;16.00;99.90;;;;;;4200046;28;20170;-89
2022/05/31 06:37:34;;;;;;;10.60;5.32;;;16.20;99.90;;;;;;4184480;28;20223;-89
2022/05/31 06:39:36;;;;;;;8.50;5.70;;;16.20;99.90;;;;;;4183143;28;20168;-88
2022/05/31 06:41:40;;;;;;;7.75;4.95;;;16.20;99.90;;;;;;4183360;28;20297;-88
2022/05/31 06:44:05;;;;;;;8.75;4.88;;;16.10;99.90;;;;;;4189429;28;20217;-89
2022/05/31 06:46:24;;;;;;;8.48;5.28;;;16.00;99.90;;;;;;4200020;28;20190;-89
2022/05/31 06:48:43;;;;;;;9.65;4.90;;;16.10;99.90;;;;;;4199940;28;20174;-89
2022/05/31 06:51:12;;;;;;;7.13;4.60;;;16.00;99.90;;;;;;4196880;28;20202;-89
2022/05/31 06:56:48;;;;;;;9.60;4.63;;;16.30;99.90;;;;;;4177017;28;20206;-89
2022/05/31 06:59:02;;;;;;;9.85;4.07;;;16.40;99.90;;;;;;4197400;28;20182;-90
2022/05/31 07:01:06;;;;;;;8.20;2.92;;;16.30;99.90;;;;;;4199616;28;20163;-89
2022/05/31 07:03:08;;;;;;;7.72;3.30;;;16.00;99.90;;;;;;4182993;28;20175;-90
2022/05/31 07:05:12;;;;;;;6.20;3.22;;;15.90;99.90;;;;;;4183088;28;20198;-90
2022/05/31 07:07:14;;;;;;;8.25;3.80;;;16.10;99.90;;;;;;4182749;28;20228;-89
2022/05/31 07:09:24;;;;;;;5.38;3.20;;;16.20;99.90;;;;;;4199394;28;20214;-89
2022/05/31 07:11:25;;;;;;;7.00;3.00;;;16.70;99.90;;;;;;4182648;28;20258;-89
2022/05/31 07:13:45;;;;;;;8.77;3.20;;;18.40;99.90;;;;;;4200161;28;20209;-89
2022/05/31 07:15:45;;;;;;;8.90;3.10;;;20.90;99.90;;;;;;4199323;28;20167;-90
2022/05/31 07:18:07;;;;;;;8.20;2.58;;;22.90;99.90;;;;;;4159294;28;20717;-89
2022/05/31 07:20:09;;;;;;;6.78;2.33;;;24.80;99.90;;;;;;4199177;28;20285;-87
2022/05/31 07:22:10;;;;;;;4.70;2.13;;;26.00;99.90;;;;;;4199230;28;20170;-88
2022/05/31 07:24:13;;;;;;;5.80;2.67;;;27.30;99.90;;;;;;4182750;28;20674;-88
2022/05/31 07:26:34;;;;;;;5.95;2.90;;;27.70;99.90;;;;;;4199179;28;20171;-87
2022/05/31 07:28:35;;;;;;;5.63;2.50;;;28.20;99.90;;;;;;4198884;28;20163;-85
2022/05/31 07:30:39;;;;;;;6.80;3.55;;;27.10;99.90;;;;;;4182706;28;20250;-86
2022/05/31 07:32:47;;;;;;;7.50;3.10;;;26.10;99.90;;;;;;4182106;28;20171;-87
2022/05/31 07:34:49;;;;;;;5.05;2.90;;;25.90;99.90;;;;;;4182376;28;20179;-87
2022/05/31 07:36:49;;;;;;;4.93;2.78;;;25.70;99.90;;;;;;4198835;28;20242;-87
2022/05/31 07:38:50;;;;;;;8.95;2.80;;;26.10;99.90;;;;;;4182529;28;20167;-88
2022/05/31 07:40:51;;;;;;;5.65;3.08;;;27.10;99.90;;;;;;4182562;28;20221;-87
2022/05/31 07:42:52;;;;;;;9.70;3.95;;;28.30;99.90;;;;;;4198895;28;20658;-88
2022/05/31 07:44:54;;;;;;;9.10;3.60;;;28.80;99.90;;;;;;4198961;28;20272;-89
2022/05/31 07:46:55;;;;;;;17.27;3.70;;;29.40;99.90;;;;;;4198721;28;20195;-87
2022/05/31 07:48:57;;;;;;;8.45;4.18;;;29.60;99.90;;;;;;4182225;28;20171;-87
2022/05/31 07:51:14;;;;;;;7.47;3.80;;;29.30;99.90;;;;;;4184227;28;20190;-87
2022/05/31 07:53:33;;;;;;;8.90;3.97;;;29.00;99.90;;;;;;4199788;28;20182;-86
2022/05/31 07:56:10;;;;;;;11.60;3.40;;;28.60;99.90;;;;;;4198797;28;20190;-88
2022/05/31 07:58:30;;;;;;;7.13;3.10;;;28.90;99.90;;;;;;4189307;28;20202;-87
2022/05/31 08:01:13;;;;;;;7.53;3.00;;;29.10;99.90;;;;;;4137077;28;20192;-87
2022/05/31 08:03:14;;;;;;;8.93;2.80;;;28.20;99.90;;;;;;4178291;28;20178;-86
2022/05/31 08:05:15;;;;;;;6.93;3.35;;;27.40;99.90;;;;;;4198038;28;20689;-86
2022/05/31 08:07:16;;;;;;;6.75;2.85;;;27.00;99.90;;;;;;4197966;28;20186;-88
2022/05/31 08:09:17;;;;;;;6.15;2.95;;;26.40;99.90;;;;;;4198309;28;20175;-88
2022/05/31 08:11:24;;;;;;;7.03;2.75;;;26.30;99.90;;;;;;4181948;28;20317;-88
2022/05/31 08:13:25;;;;;;;7.85;3.42;;;26.80;99.90;;;;;;4181738;28;20187;-86
2022/05/31 08:15:25;;;;;;;10.50;3.22;;;27.40;99.90;;;;;;4181788;28;20191;-87
2022/05/31 08:17:27;;;;;;;4.97;2.40;;;27.30;99.90;;;;;;4197943;28;20233;-87
2022/05/31 08:19:28;;;;;;;11.70;3.00;;;27.50;99.90;;;;;;4181785;28;20176;-87
2022/05/31 08:21:30;;;;;;;7.35;3.25;;;27.40;99.90;;;;;;4181568;28;20171;-87
2022/05/31 08:23:32;;;;;;;10.15;2.83;;;26.70;99.90;;;;;;4198214;28;20186;-88
2022/05/31 08:25:34;;;;;;;8.82;3.00;;;26.50;99.90;;;;;;4181735;28;20519;-87
2022/05/31 08:27:34;;;;;;;8.00;2.60;;;27.00;99.90;;;;;;4181628;28;20261;-88
2022/05/31 08:29:35;;;;;;;6.40;2.42;;;28.00;99.90;;;;;;4181485;28;20188;-86
2022/05/31 08:31:36;;;;;;;6.22;2.20;;;28.20;99.90;;;;;;4197834;28;20183;-87
2022/05/31 08:33:39;;;;;;;5.80;2.47;;;26.60;99.90;;;;;;4181313;28;20209;-89
2022/05/31 08:35:39;;;;;;;6.75;2.25;;;26.90;99.90;;;;;;4181246;28;20163;-87
2022/05/31 08:37:40;;;;;;;7.88;2.20;;;27.30;99.90;;;;;;4181320;28;20237;-88
2022/05/31 08:39:41;;;;;;;4.43;1.90;;;27.80;99.90;;;;;;4197987;28;20172;-88
2022/05/31 08:41:46;;;;;;;5.00;2.00;;;28.70;99.90;;;;;;4181587;28;20179;-86
2022/05/31 08:43:47;;;;;;;6.68;2.60;;;27.90;99.90;;;;;;4181008;28;20206;-86
2022/05/31 08:45:57;;;;;;;4.82;2.03;;;26.60;99.90;;;;;;4197538;28;20631;-87
2022/05/31 08:48:31;;;;;;;5.53;1.60;;;25.70;99.90;;;;;;4197857;28;20535;-88
2022/05/31 08:53:43;;;;;;;5.63;2.22;;;27.10;99.90;;;;;;4197890;28;20181;-88
2022/05/31 08:58:19;;;;;;;4.75;1.80;;;25.00;99.90;;;;;;4197489;28;20222;-86
2022/05/31 09:00:24;;;;;;;3.85;1.80;;;24.10;99.90;;;;;;4197581;28;20190;-87
2022/05/31 09:02:32;;;;;;;6.78;1.58;;;23.80;99.90;;;;;;4197545;28;20217;-87
2022/05/31 09:04:45;;;;;;;6.65;1.60;;;24.80;99.90;;;;;;4181223;28;20229;-87
2022/05/31 09:07:02;;;;;;;3.67;1.33;;;25.60;99.90;;;;;;4197659;28;20568;-88
2022/05/31 09:09:12;;;;;;;6.55;1.38;;;26.20;99.90;;;;;;4197689;28;20194;-87
2022/05/31 09:11:25;;;;;;;2.05;1.17;;;26.10;99.90;;;;;;4197725;28;20182;-88
2022/05/31 09:13:42;;;;;;;4.30;1.35;;;26.60;99.90;;;;;;4180824;28;20229;-87
2022/05/31 09:15:44;;;;;;;3.30;1.15;;;27.50;99.90;;;;;;4197529;28;20174;-88
2022/05/31 09:18:10;;;;;;;3.67;1.10;;;28.20;99.90;;;;;;4197463;28;20222;-88
2022/05/31 09:20:34;;;;;;;2.22;0.90;;;28.60;99.90;;;;;;4181139;28;20655;-88
2022/05/31 09:22:36;;;;;;;2.97;0.65;;;28.80;99.90;;;;;;4181059;28;20176;-88
2022/05/31 09:24:41;;;;;;;3.00;0.90;;;28.80;99.90;;;;;;4198728;28;20171;-89
2022/05/31 09:27:04;;;;;;;2.35;0.88;;;29.60;99.90;;;;;;4197456;28;20163;-90
2022/05/31 09:29:11;;;;;;;2.42;1.10;;;30.60;99.90;;;;;;4181094;28;20175;-88
2022/05/31 09:31:37;;;;;;;4.97;1.00;;;30.80;99.90;;;;;;4180804;28;20186;-88
2022/05/31 09:33:58;;;;;;;3.67;0.90;;;30.60;99.90;;;;;;4180841;28;20185;-88
2022/05/31 09:36:21;;;;;;;2.60;1.02;;;30.20;99.90;;;;;;4198477;28;20178;-89
2022/05/31 09:39:04;;;;;;;1.55;0.80;;;30.10;99.90;;;;;;4180806;28;20203;-87
2022/05/31 09:41:12;;;;;;;2.60;0.93;;;30.40;99.90;;;;;;4191890;28;20243;-89
2022/05/31 09:43:39;;;;;;;2.33;0.93;;;30.20;99.90;;;;;;4197234;28;20645;-87
2022/05/31 09:45:48;;;;;;;2.53;0.95;;;30.20;99.90;;;;;;4198401;28;20194;-89
2022/05/31 09:47:50;;;;;;;2.25;0.98;;;28.90;99.90;;;;;;4180785;28;20194;-89
2022/05/31 09:49:52;;;;;;;2.25;1.13;;;28.40;99.90;;;;;;4181179;28;20202;-89
2022/05/31 09:51:53;;;;;;;3.78;1.55;;;27.90;99.90;;;;;;4197415;28;20186;-89
2022/05/31 09:59:27;;;;;;;2.08;1.10;;;27.20;99.90;;;;;;4173276;28;20183;-89
2022/05/31 10:02:29;;;;;;;3.38;1.10;;;27.20;99.90;;;;;;4167178;28;20234;-88
2022/05/31 10:04:31;;;;;;;6.72;1.63;;;27.50;99.90;;;;;;4171622;28;20722;-87
2022/05/31 10:06:33;;;;;;;2.80;1.10;;;27.70;99.90;;;;;;4183830;28;20186;-88
2022/05/31 10:08:34;;;;;;;4.40;1.27;;;27.70;99.90;;;;;;4200169;28;20179;-87
2022/05/31 10:10:42;;;;;;;3.33;1.23;;;27.90;99.90;;;;;;4183500;28;20168;-88
2022/05/31 10:12:55;;;;;;;3.85;1.20;;;27.30;99.90;;;;;;4183657;28;20167;-88
2022/05/31 10:14:56;;;;;;;3.10;1.33;;;27.40;99.90;;;;;;4183693;28;20182;-86
2022/05/31 10:17:34;;;;;;;2.22;0.90;;;26.90;99.90;;;;;;4200111;28;20214;-87
2022/05/31 10:19:35;;;;;;;1.80;0.90;;;26.40;99.90;;;;;;4183686;28;20175;-88
2022/05/31 10:21:43;;;;;;;2.17;0.90;;;26.80;99.90;;;;;;4183466;28;20179;-87
2022/05/31 10:23:45;;;;;;;4.43;1.42;;;27.30;99.90;;;;;;4200182;28;20178;-88
2022/05/31 10:26:04;;;;;;;1.65;0.80;;;27.40;99.90;;;;;;4201142;28;20244;-87
2022/05/31 10:28:49;;;;;;;2.65;0.90;;;26.80;99.90;;;;;;4199877;28;20212;-88
2022/05/31 10:31:25;;;;;;;4.40;0.80;;;26.30;99.90;;;;;;4184566;28;20191;-88
2022/05/31 10:33:26;;;;;;;3.15;0.68;;;26.00;99.90;;;;;;4183248;28;20198;-87
2022/05/31 10:35:31;;;;;;;3.03;0.85;;;25.90;99.90;;;;;;4183608;28;20636;-87
2022/05/31 10:37:35;;;;;;;1.73;0.60;;;25.90;99.90;;;;;;4199928;28;20213;-88
2022/05/31 10:39:38;;;;;;;3.00;0.95;;;26.20;99.90;;;;;;4183527;28;20215;-89
2022/05/31 10:41:39;;;;;;;2.97;0.50;;;26.40;99.90;;;;;;4200118;28;20241;-87
2022/05/31 10:43:50;;;;;;;1.92;0.77;;;26.70;99.90;;;;;;4182934;28;20565;-90
2022/05/31 10:45:54;;;;;;;2.05;0.80;;;25.60;99.90;;;;;;4183221;28;20168;-89
2022/05/31 10:47:56;;;;;;;4.13;0.85;;;25.20;99.90;;;;;;4183168;28;20314;-90
2022/05/31 10:49:57;;;;;;;6.78;0.70;;;25.00;99.90;;;;;;4183404;28;20690;-88
2022/05/31 10:52:26;;;;;;;3.70;0.70;;;25.20;99.90;;;;;;4199617;28;20175;-90
2022/05/31 10:54:51;;;;;;;2.97;0.80;;;25.60;99.90;;;;;;4161717;28;20188;-89
2022/05/31 10:57:09;;;;;;;2.60;1.00;;;25.10;99.90;;;;;;4183022;28;20203;-92
2022/05/31 10:59:28;;;;;;;2.72;0.77;;;25.10;99.90;;;;;;4183237;28;20377;-88
2022/05/31 11:01:41;;;;;;;2.90;0.70;;;25.10;99.90;;;;;;4183086;28;20186;-87
2022/05/31 11:04:02;;;;;;;4.47;1.00;;;24.90;99.90;;;;;;4183021;28;20179;-87
2022/05/31 11:06:49;;;;;;;3.75;0.68;;;24.50;99.90;;;;;;4182945;28;20179;-88
2022/05/31 11:11:46;;;;;;;2.03;0.80;;;23.70;99.90;;;;;;4199440;28;20183;-92
2022/05/31 11:14:11;;;;;;;2.08;0.80;;;23.60;99.90;;;;;;4182581;28;20183;-90
2022/05/31 11:16:40;;;;;;;3.53;0.80;;;24.10;99.90;;;;;;4199195;28;20173;-88
2022/05/31 11:19:11;;;;;;;2.60;0.93;;;24.30;99.90;;;;;;4182698;28;20183;-88
2022/05/31 11:21:33;;;;;;;2.13;0.93;;;24.00;99.90;;;;;;4154925;28;20245;-87
2022/05/31 11:24:11;;;;;;;2.78;0.80;;;23.30;99.90;;;;;;4182580;28;20713;-88
2022/05/31 11:26:18;;;;;;;1.45;0.80;;;23.40;99.90;;;;;;4182373;28;20186;-88
2022/05/31 11:28:27;;;;;;;1.80;0.82;;;23.10;99.90;;;;;;4182349;28;20195;-86
2022/05/31 11:31:11;;;;;;;1.80;0.60;;;23.30;99.90;;;;;;4182648;28;20198;-88
2022/05/31 11:33:27;;;;;;;4.53;0.73;;;23.20;99.90;;;;;;4182637;28;20175;-87
2022/05/31 11:35:49;;;;;;;2.53;0.82;;;23.00;99.90;;;;;;4199161;28;20208;-89